Time;durP1;ratioP1;P1;durP2;ratioP2;P2;SDS_P1;SDS_P2;PMS_P1;PMS_P2;Temp;Humidity;BMP_temperature;BMP_pressure;BME280_temperature;BME280_humidity;BME280_pressure;Samples;Min_cycle;Max_cycle;Signal;HPM_P1;HPM_P2
2020/12/15 00:01:06;;;;;;;18.50;11.15;;;13.10;65.10;;;;;;5015543;28;20090;-66
2020/12/15 00:03:32;;;;;;;19.55;11.45;;;13.20;65.20;;;;;;5015989;28;20541;-66
2020/12/15 00:05:58;;;;;;;17.02;10.82;;;13.10;65.20;;;;;;5019693;28;20122;-66
2020/12/15 00:08:23;;;;;;;18.33;11.30;;;13.10;65.30;;;;;;5014536;28;20041;-66
2020/12/15 00:10:49;;;;;;;15.70;10.43;;;13.10;65.30;;;;;;5015194;28;20502;-66
2020/12/15 00:13:15;;;;;;;19.23;11.50;;;13.10;65.20;;;;;;5015512;28;20497;-66
2020/12/15 00:15:40;;;;;;;19.23;9.85;;;13.20;65.30;;;;;;5017332;28;20041;-66
2020/12/15 00:18:06;;;;;;;15.65;10.23;;;13.20;65.20;;;;;;5020570;28;20048;-66
2020/12/15 00:20:32;;;;;;;17.52;11.15;;;13.20;65.10;;;;;;5021288;28;20124;-67
2020/12/15 00:22:58;;;;;;;16.80;10.63;;;13.20;65.10;;;;;;5016167;28;20045;-66
2020/12/15 00:25:24;;;;;;;16.42;10.00;;;13.20;65.10;;;;;;5009756;28;20075;-66
2020/12/15 00:27:49;;;;;;;19.20;11.18;;;13.20;65.30;;;;;;5016378;28;20036;-66
2020/12/15 00:30:15;;;;;;;15.93;10.75;;;13.20;65.20;;;;;;5018921;28;20045;-66
2020/12/15 00:32:45;;;;;;;17.48;10.38;;;13.20;65.20;;;;;;5016178;28;20755;-66
2020/12/15 00:35:11;;;;;;;17.35;10.40;;;13.20;65.20;;;;;;5020838;28;20048;-66
2020/12/15 00:37:37;;;;;;;17.02;10.73;;;13.20;65.20;;;;;;5016475;28;20044;-66
2020/12/15 00:40:05;;;;;;;19.40;10.98;;;13.20;65.10;;;;;;5012882;28;20660;-66
2020/12/15 00:42:31;;;;;;;19.67;10.70;;;13.20;65.10;;;;;;5018210;28;20095;-66
2020/12/15 00:44:56;;;;;;;18.00;11.20;;;13.20;65.20;;;;;;5010477;28;20132;-66
2020/12/15 00:47:22;;;;;;;22.40;11.90;;;13.20;65.10;;;;;;5019845;28;20147;-66
2020/12/15 00:49:47;;;;;;;20.52;12.25;;;13.20;65.10;;;;;;5026179;28;20116;-66
2020/12/15 00:52:13;;;;;;;20.92;11.52;;;13.20;65.20;;;;;;5015306;28;20405;-66
2020/12/15 00:54:39;;;;;;;21.08;11.13;;;13.20;65.10;;;;;;5018092;28;20493;-66
2020/12/15 00:57:04;;;;;;;21.88;11.15;;;13.20;65.10;;;;;;5016724;28;20563;-66
2020/12/15 00:59:30;;;;;;;19.55;11.88;;;13.20;65.10;;;;;;5019090;28;20048;-66
2020/12/15 01:01:59;;;;;;;23.90;11.57;;;13.20;65.10;;;;;;5021809;28;20690;-66
2020/12/15 01:04:26;;;;;;;24.08;12.32;;;13.20;65.10;;;;;;5015232;28;20677;-66
2020/12/15 01:06:51;;;;;;;21.20;12.35;;;13.20;65.10;;;;;;5016987;28;20533;-66
2020/12/15 01:09:17;;;;;;;18.17;10.90;;;13.20;65.10;;;;;;5018659;28;20083;-66
2020/12/15 01:11:43;;;;;;;21.92;11.85;;;13.20;65.90;;;;;;5012184;28;20744;-66
2020/12/15 01:14:08;;;;;;;20.02;12.00;;;13.20;65.10;;;;;;5019675;28;20041;-67
2020/12/15 01:16:34;;;;;;;25.08;11.80;;;13.20;65.10;;;;;;5020414;28;20044;-66
2020/12/15 01:19:00;;;;;;;21.23;12.35;;;13.20;65.10;;;;;;5006769;28;20038;-66
2020/12/15 01:21:29;;;;;;;19.00;12.35;;;13.20;65.10;;;;;;5020820;28;20140;-66
2020/12/15 01:23:56;;;;;;;21.90;11.90;;;13.20;65.10;;;;;;5017872;28;20514;-66
2020/12/15 01:26:22;;;;;;;20.50;12.25;;;13.20;65.00;;;;;;5019427;28;20145;-66
2020/12/15 01:28:48;;;;;;;19.67;12.60;;;13.20;65.00;;;;;;5021889;28;20061;-66
2020/12/15 01:31:14;;;;;;;18.88;12.40;;;13.20;65.00;;;;;;4997097;28;20037;-66
2020/12/15 01:33:40;;;;;;;25.58;12.90;;;13.20;65.80;;;;;;5016806;28;20037;-66
2020/12/15 01:36:06;;;;;;;19.27;12.50;;;13.20;65.00;;;;;;5000448;28;20030;-66
2020/12/15 01:38:31;;;;;;;21.83;11.85;;;13.20;65.00;;;;;;5014930;28;20045;-66
2020/12/15 01:40:57;;;;;;;23.30;12.82;;;13.20;65.00;;;;;;5019321;28;20059;-66
2020/12/15 01:43:23;;;;;;;23.63;13.18;;;13.20;65.00;;;;;;5020618;28;20675;-66
2020/12/15 01:45:48;;;;;;;21.98;11.85;;;13.20;65.00;;;;;;5017531;28;20049;-66
2020/12/15 01:48:14;;;;;;;23.42;12.55;;;13.20;65.00;;;;;;5018869;28;20139;-66
2020/12/15 01:50:40;;;;;;;18.67;11.95;;;13.20;65.00;;;;;;5018228;28;20075;-66
2020/12/15 01:53:11;;;;;;;20.67;12.00;;;13.20;65.70;;;;;;5026581;28;20444;-66
2020/12/15 01:55:37;;;;;;;20.33;12.95;;;13.10;65.00;;;;;;5028760;28;20037;-66
2020/12/15 01:58:04;;;;;;;21.60;12.63;;;13.20;65.10;;;;;;5015940;28;20098;-66
2020/12/15 02:00:30;;;;;;;19.25;11.50;;;13.10;65.00;;;;;;5031428;28;20033;-66
2020/12/15 02:02:56;;;;;;;21.60;11.65;;;13.10;65.00;;;;;;5025474;28;20078;-66
2020/12/15 02:05:21;;;;;;;23.30;13.00;;;13.10;65.10;;;;;;5021117;28;20041;-66
2020/12/15 02:07:48;;;;;;;22.48;12.85;;;13.10;65.10;;;;;;5024109;28;20094;-66
2020/12/15 02:10:13;;;;;;;24.83;13.23;;;13.10;65.10;;;;;;5007013;28;20510;-66
2020/12/15 02:12:40;;;;;;;19.70;12.20;;;13.10;65.10;;;;;;5023795;28;20048;-66
2020/12/15 02:15:09;;;;;;;18.73;12.20;;;13.10;65.10;;;;;;5026563;28;20103;-66
2020/12/15 02:17:35;;;;;;;23.02;13.02;;;13.10;65.20;;;;;;5024905;28;20423;-66
2020/12/15 02:20:08;;;;;;;20.20;12.50;;;13.10;65.10;;;;;;5008247;28;20133;-66
2020/12/15 02:22:34;;;;;;;21.30;12.48;;;13.10;65.10;;;;;;5021062;28;20041;-66
2020/12/15 02:25:00;;;;;;;19.23;11.95;;;13.10;65.10;;;;;;5026583;28;20098;-66
2020/12/15 02:27:26;;;;;;;18.17;12.55;;;13.00;65.10;;;;;;5021035;28;20044;-66
2020/12/15 02:29:51;;;;;;;21.52;12.63;;;13.00;65.10;;;;;;5015656;28;20152;-66
2020/12/15 02:32:17;;;;;;;19.88;12.52;;;13.00;65.10;;;;;;5024171;28;20128;-66
2020/12/15 02:34:43;;;;;;;20.80;11.60;;;13.00;65.10;;;;;;5029448;28;20056;-66
2020/12/15 02:37:10;;;;;;;20.80;11.57;;;13.00;65.20;;;;;;5024368;28;20170;-66
2020/12/15 02:39:36;;;;;;;21.75;11.85;;;13.00;65.20;;;;;;5024272;28;20041;-66
2020/12/15 02:42:02;;;;;;;19.77;11.77;;;13.00;65.20;;;;;;5022219;28;20038;-66
2020/12/15 02:44:28;;;;;;;19.80;11.75;;;13.00;65.20;;;;;;5029814;28;20524;-66
2020/12/15 02:46:54;;;;;;;22.50;12.70;;;13.00;65.20;;;;;;5027128;28;20072;-66
2020/12/15 02:49:19;;;;;;;21.58;11.95;;;12.90;65.20;;;;;;5025649;28;20045;-66
2020/12/15 02:51:48;;;;;;;18.27;11.68;;;12.90;65.30;;;;;;5026853;28;20498;-66
2020/12/15 02:54:14;;;;;;;18.77;11.30;;;12.90;65.30;;;;;;5020771;28;20124;-66
2020/12/15 02:56:40;;;;;;;26.35;11.68;;;12.90;65.20;;;;;;5030103;28;20136;-66
2020/12/15 02:59:05;;;;;;;18.38;12.07;;;12.90;65.20;;;;;;5023288;28;20047;-66
2020/12/15 03:01:31;;;;;;;18.00;11.10;;;12.90;65.20;;;;;;5023951;28;20041;-66
2020/12/15 03:03:56;;;;;;;17.55;10.60;;;12.90;65.20;;;;;;5031170;28;20065;-66
2020/12/15 03:06:22;;;;;;;16.52;11.15;;;12.90;65.20;;;;;;5026020;28;20037;-66
2020/12/15 03:08:48;;;;;;;17.40;11.20;;;12.90;65.30;;;;;;5027211;28;20132;-66
2020/12/15 03:11:13;;;;;;;21.50;11.07;;;12.90;65.30;;;;;;5020174;28;20161;-66
2020/12/15 03:13:39;;;;;;;16.25;10.57;;;12.90;65.30;;;;;;5025139;28;20141;-66
2020/12/15 03:16:04;;;;;;;17.30;10.50;;;12.90;65.30;;;;;;5023095;28;20095;-66
2020/12/15 03:18:30;;;;;;;17.85;10.23;;;12.90;65.30;;;;;;5023496;28;20033;-66
2020/12/15 03:20:56;;;;;;;16.52;10.63;;;12.90;65.30;;;;;;5007315;28;20544;-66
2020/12/15 03:23:23;;;;;;;19.05;10.27;;;12.90;65.40;;;;;;5026089;28;20517;-66
2020/12/15 03:25:52;;;;;;;18.48;10.32;;;12.90;65.30;;;;;;5029531;28;20096;-66
2020/12/15 03:28:19;;;;;;;15.73;10.38;;;12.90;65.30;;;;;;5030578;28;20930;-66
2020/12/15 03:30:45;;;;;;;15.88;9.82;;;12.90;65.30;;;;;;5028223;28;20041;-66
2020/12/15 03:33:11;;;;;;;18.95;10.40;;;12.90;65.30;;;;;;5029692;28;20033;-66
2020/12/15 03:35:36;;;;;;;15.88;9.57;;;12.90;65.30;;;;;;5034497;28;20037;-66
2020/12/15 03:38:02;;;;;;;17.42;10.10;;;12.80;65.20;;;;;;5026836;28;20049;-66
2020/12/15 03:40:27;;;;;;;15.98;9.63;;;12.80;65.30;;;;;;5013311;28;20042;-66
2020/12/15 03:42:53;;;;;;;17.45;9.88;;;12.80;65.40;;;;;;5032925;28;20045;-66
2020/12/15 03:45:19;;;;;;;15.55;10.15;;;12.80;65.40;;;;;;5034649;28;20045;-66
2020/12/15 03:47:44;;;;;;;16.00;10.25;;;12.80;65.40;;;;;;5028009;28;20049;-66
2020/12/15 03:50:12;;;;;;;16.98;10.35;;;12.80;65.40;;;;;;5032588;28;20037;-66
2020/12/15 03:52:41;;;;;;;16.15;10.32;;;12.80;65.40;;;;;;5028144;28;20037;-66
2020/12/15 03:55:07;;;;;;;18.35;10.60;;;12.80;66.10;;;;;;5032362;28;20485;-66
2020/12/15 03:57:33;;;;;;;16.88;10.18;;;12.80;65.30;;;;;;5033327;28;20132;-66
2020/12/15 03:59:59;;;;;;;17.08;10.02;;;12.80;65.30;;;;;;5030601;28;20033;-66
2020/12/15 04:02:25;;;;;;;15.90;10.00;;;12.80;65.30;;;;;;5034167;28;20475;-66
2020/12/15 04:04:51;;;;;;;17.40;9.98;;;12.80;65.30;;;;;;5024049;28;20033;-66
2020/12/15 04:07:17;;;;;;;17.73;10.27;;;12.80;65.30;;;;;;5027659;28;20037;-66
2020/12/15 04:09:44;;;;;;;17.92;10.23;;;12.80;65.30;;;;;;5023166;28;20098;-66
2020/12/15 04:12:11;;;;;;;16.35;9.65;;;12.80;65.30;;;;;;5025732;28;20037;-66
2020/12/15 04:14:38;;;;;;;15.25;9.63;;;12.80;65.30;;;;;;5028203;28;20042;-66
2020/12/15 04:17:04;;;;;;;15.98;10.60;;;12.80;65.30;;;;;;5030379;28;20390;-66
2020/12/15 04:19:29;;;;;;;18.55;10.63;;;12.80;65.30;;;;;;5030167;28;20094;-66
2020/12/15 04:21:55;;;;;;;17.02;10.65;;;12.70;65.20;;;;;;5010055;28;20037;-66
2020/12/15 04:24:20;;;;;;;16.35;10.45;;;12.70;65.20;;;;;;5023123;28;20051;-66
2020/12/15 04:26:46;;;;;;;16.70;9.43;;;12.70;65.20;;;;;;5017278;28;20072;-66
2020/12/15 04:29:12;;;;;;;17.27;11.18;;;12.70;65.30;;;;;;5028818;28;20047;-66
2020/12/15 04:31:37;;;;;;;17.23;10.23;;;12.60;65.30;;;;;;5025609;28;20037;-66
2020/12/15 04:34:04;;;;;;;18.27;10.38;;;12.60;65.30;;;;;;5020157;28;20079;-66
2020/12/15 04:36:29;;;;;;;18.65;10.77;;;12.60;65.30;;;;;;4999673;28;20539;-66
2020/12/15 04:38:55;;;;;;;19.33;10.68;;;12.60;65.30;;;;;;5011969;28;20033;-66
2020/12/15 04:41:20;;;;;;;16.65;10.63;;;12.60;65.30;;;;;;5005047;28;20039;-66
2020/12/15 04:43:47;;;;;;;16.67;10.82;;;12.60;65.40;;;;;;5024300;28;20040;-66
2020/12/15 04:46:18;;;;;;;16.83;11.63;;;12.50;65.30;;;;;;5026074;28;20044;-66
2020/12/15 04:48:50;;;;;;;16.88;11.25;;;12.50;65.40;;;;;;5028647;28;20122;-66
2020/12/15 04:51:20;;;;;;;17.92;11.13;;;12.60;65.50;;;;;;5026636;28;20040;-66
2020/12/15 04:53:53;;;;;;;17.63;10.90;;;12.60;65.50;;;;;;5041037;22;20527;-62
2020/12/15 04:56:25;;;;;;;16.20;10.65;;;12.60;65.50;;;;;;5018929;28;20531;-62
2020/12/15 04:58:56;;;;;;;19.70;11.23;;;12.60;65.50;;;;;;5028207;28;20049;-62
2020/12/15 05:01:24;;;;;;;18.95;11.27;;;12.60;65.40;;;;;;5022736;28;20033;-62
2020/12/15 05:03:52;;;;;;;19.58;11.40;;;12.60;65.40;;;;;;5026341;28;20025;-62
2020/12/15 05:06:27;;;;;;;19.27;11.18;;;12.60;65.40;;;;;;5028535;28;20033;-62
2020/12/15 05:08:54;;;;;;;17.05;11.43;;;12.60;65.40;;;;;;5026738;28;20041;-62
2020/12/15 05:11:21;;;;;;;18.50;11.27;;;12.60;65.40;;;;;;5019004;28;20053;-62
2020/12/15 05:13:47;;;;;;;18.52;11.25;;;12.60;65.40;;;;;;5025046;28;20040;-62
2020/12/15 05:16:13;;;;;;;20.50;11.40;;;12.60;65.50;;;;;;5011618;28;20688;-62
2020/12/15 05:18:41;;;;;;;16.85;10.95;;;12.60;65.50;;;;;;5010318;28;20041;-62
2020/12/15 05:21:17;;;;;;;22.48;10.95;;;12.60;65.50;;;;;;5024683;28;20098;-62
2020/12/15 05:23:49;;;;;;;17.95;10.90;;;12.60;65.50;;;;;;5026789;28;20034;-62
2020/12/15 05:26:22;;;;;;;20.92;11.35;;;12.60;65.50;;;;;;5021975;28;20113;-62
2020/12/15 05:28:59;;;;;;;17.50;10.55;;;12.60;65.50;;;;;;5025067;28;20052;-62
2020/12/15 05:31:24;;;;;;;21.10;12.10;;;12.60;65.60;;;;;;5023540;28;20450;-62
2020/12/15 05:33:51;;;;;;;20.67;11.32;;;12.60;65.60;;;;;;5011147;28;20067;-62
2020/12/15 05:36:21;;;;;;;19.63;11.82;;;12.60;65.60;;;;;;5025531;28;20116;-62
2020/12/15 05:39:04;;;;;;;19.45;12.23;;;12.60;65.70;;;;;;5010244;28;20116;-62
2020/12/15 05:41:32;;;;;;;20.48;11.30;;;12.60;65.70;;;;;;5024522;28;20394;-62
2020/12/15 05:43:58;;;;;;;22.40;12.38;;;12.60;65.70;;;;;;5018930;28;20041;-62
2020/12/15 05:46:26;;;;;;;22.75;12.35;;;12.60;65.80;;;;;;5023477;28;20489;-62
2020/12/15 05:49:00;;;;;;;24.60;12.63;;;12.60;65.70;;;;;;5031661;28;20041;-62
2020/12/15 05:51:40;;;;;;;24.33;11.82;;;12.60;65.80;;;;;;5025867;28;20131;-62
2020/12/15 05:54:14;;;;;;;18.77;12.27;;;12.60;65.80;;;;;;5022187;28;20106;-62
2020/12/15 05:56:41;;;;;;;21.58;11.93;;;12.60;65.80;;;;;;5022924;28;20052;-62
2020/12/15 05:59:20;;;;;;;27.73;12.85;;;12.60;65.80;;;;;;5021659;28;20124;-62
2020/12/15 06:01:48;;;;;;;23.45;12.82;;;12.60;65.80;;;;;;5022656;28;20575;-62
2020/12/15 06:04:14;;;;;;;23.67;13.90;;;12.60;65.90;;;;;;5025101;28;20036;-62
2020/12/15 06:06:41;;;;;;;24.52;13.15;;;12.60;65.90;;;;;;5007331;28;20637;-62
2020/12/15 06:09:14;;;;;;;23.38;13.32;;;12.60;65.90;;;;;;5025256;28;20037;-62
2020/12/15 06:11:42;;;;;;;29.50;14.73;;;12.60;65.90;;;;;;5026693;28;20040;-62
2020/12/15 06:14:08;;;;;;;23.88;13.57;;;12.60;65.90;;;;;;5032620;28;20032;-62
2020/12/15 06:16:34;;;;;;;25.85;13.88;;;12.60;66.00;;;;;;5033806;28;20038;-62
2020/12/15 06:19:01;;;;;;;22.70;14.00;;;12.60;65.90;;;;;;5029491;28;20730;-62
2020/12/15 06:21:28;;;;;;;26.80;15.10;;;12.70;65.90;;;;;;5029239;28;20405;-62
2020/12/15 06:24:01;;;;;;;31.27;15.40;;;12.60;65.90;;;;;;5033995;28;20044;-62
2020/12/15 06:26:30;;;;;;;24.13;14.60;;;12.70;66.10;;;;;;5030549;28;20489;-62
2020/12/15 06:29:08;;;;;;;27.17;14.23;;;12.70;66.10;;;;;;5030967;28;20041;-62
2020/12/15 06:31:35;;;;;;;27.75;14.70;;;12.60;66.10;;;;;;5033385;28;20045;-62
2020/12/15 06:34:03;;;;;;;27.27;15.43;;;12.70;66.00;;;;;;5034624;28;20043;-63
2020/12/15 06:36:33;;;;;;;28.67;15.15;;;12.70;66.10;;;;;;5033593;28;20057;-63
2020/12/15 06:39:00;;;;;;;27.38;15.50;;;12.70;66.10;;;;;;5012831;28;20076;-61
2020/12/15 06:41:27;;;;;;;28.63;15.95;;;12.70;66.10;;;;;;5006113;28;20045;-62
2020/12/15 06:44:07;;;;;;;28.67;15.73;;;12.70;66.20;;;;;;5018487;28;20045;-62
2020/12/15 06:46:32;;;;;;;27.30;15.05;;;12.70;66.90;;;;;;5031103;28;20099;-62
2020/12/15 06:48:58;;;;;;;29.88;16.42;;;12.70;66.20;;;;;;5018318;28;20054;-62
2020/12/15 06:51:32;;;;;;;32.95;16.35;;;12.70;66.20;;;;;;5031197;28;20045;-62
2020/12/15 06:54:03;;;;;;;31.88;15.98;;;12.70;66.20;;;;;;5031542;28;20052;-62
2020/12/15 06:56:29;;;;;;;30.67;16.33;;;12.70;66.30;;;;;;5031733;28;20037;-62
2020/12/15 06:59:06;;;;;;;29.92;15.85;;;12.80;66.20;;;;;;5036561;28;20037;-62
2020/12/15 07:01:33;;;;;;;35.05;16.85;;;12.80;66.90;;;;;;5032264;28;20187;-62
2020/12/15 07:04:02;;;;;;;29.63;16.60;;;12.80;66.20;;;;;;5028497;28;20029;-62
2020/12/15 07:06:28;;;;;;;30.20;16.92;;;12.80;66.20;;;;;;5028138;28;20477;-62
2020/12/15 07:09:08;;;;;;;31.55;16.95;;;12.80;66.20;;;;;;5011574;28;20049;-62
2020/12/15 07:11:34;;;;;;;32.78;17.17;;;12.80;66.20;;;;;;5027223;28;20136;-62
2020/12/15 07:14:03;;;;;;;31.63;16.60;;;12.80;66.20;;;;;;5024333;28;20049;-62
2020/12/15 07:16:29;;;;;;;32.33;17.67;;;12.80;66.20;;;;;;5027343;28;20049;-62
2020/12/15 07:18:55;;;;;;;31.42;17.30;;;12.80;66.20;;;;;;5029923;28;20168;-62
2020/12/15 07:21:23;;;;;;;30.38;17.80;;;12.90;66.30;;;;;;5030609;28;20724;-62
2020/12/15 07:23:50;;;;;;;30.17;17.02;;;12.90;66.20;;;;;;5028646;28;20516;-62
2020/12/15 07:26:17;;;;;;;33.78;17.98;;;12.90;66.20;;;;;;5026241;28;20032;-62
2020/12/15 07:28:45;;;;;;;33.42;16.85;;;12.90;66.20;;;;;;5011034;28;20042;-62
2020/12/15 07:31:11;;;;;;;31.20;17.60;;;12.90;66.20;;;;;;5013488;28;20037;-62
2020/12/15 07:33:38;;;;;;;35.78;18.10;;;12.90;66.20;;;;;;5025292;28;20037;-62
2020/12/15 07:36:13;;;;;;;32.42;18.08;;;12.90;66.30;;;;;;5020266;28;21029;-62
2020/12/15 07:38:39;;;;;;;31.42;17.38;;;12.90;66.30;;;;;;5019896;28;20051;-62
2020/12/15 07:41:15;;;;;;;33.58;18.40;;;12.90;66.30;;;;;;5027974;28;20041;-62
2020/12/15 07:43:56;;;;;;;31.58;17.35;;;12.90;66.20;;;;;;5033780;28;20124;-62
2020/12/15 07:46:25;;;;;;;37.35;18.20;;;12.90;66.10;;;;;;5024633;28;20071;-62
2020/12/15 07:48:53;;;;;;;34.03;18.23;;;12.90;66.10;;;;;;5033233;28;20033;-62
2020/12/15 07:51:19;;;;;;;28.98;18.15;;;12.80;66.10;;;;;;5030166;28;20529;-62
2020/12/15 07:53:55;;;;;;;37.63;18.70;;;12.90;67.00;;;;;;5030671;28;20041;-62
2020/12/15 07:56:21;;;;;;;37.83;18.95;;;12.90;66.20;;;;;;5024865;28;20033;-61
2020/12/15 07:58:50;;;;;;;35.20;19.48;;;12.90;66.20;;;;;;5031909;28;20073;-63
2020/12/15 08:01:26;;;;;;;36.55;18.77;;;12.90;66.20;;;;;;5026956;28;20400;-62
2020/12/15 08:04:03;;;;;;;36.03;19.85;;;13.00;66.30;;;;;;5028595;28;20136;-64
2020/12/15 08:06:30;;;;;;;39.60;19.70;;;13.00;66.30;;;;;;5026850;28;20040;-62
2020/12/15 08:08:57;;;;;;;40.55;21.38;;;13.00;66.30;;;;;;5030674;28;20174;-62
2020/12/15 08:11:23;;;;;;;40.60;20.48;;;13.00;66.40;;;;;;5023011;28;20111;-61
2020/12/15 08:13:51;;;;;;;38.95;19.80;;;13.10;66.50;;;;;;5027625;28;20308;-62
2020/12/15 08:16:17;;;;;;;40.72;19.88;;;13.10;66.50;;;;;;5010494;28;20131;-62
2020/12/15 08:18:44;;;;;;;37.35;19.80;;;13.10;66.50;;;;;;5025247;28;20134;-62
2020/12/15 08:21:18;;;;;;;39.20;20.80;;;13.20;66.50;;;;;;5028751;28;20124;-62
2020/12/15 08:23:52;;;;;;;41.10;20.17;;;13.20;66.60;;;;;;5028403;28;20128;-62
2020/12/15 08:26:20;;;;;;;40.63;20.42;;;13.20;66.50;;;;;;5027121;28;20037;-62
2020/12/15 08:28:46;;;;;;;39.70;19.88;;;13.20;66.60;;;;;;5026368;28;20067;-62
2020/12/15 08:31:12;;;;;;;35.13;19.92;;;13.20;66.50;;;;;;5029587;28;20496;-62
2020/12/15 08:33:39;;;;;;;42.03;21.02;;;13.30;66.70;;;;;;5032603;28;20549;-62
2020/12/15 08:36:08;;;;;;;46.47;21.50;;;13.30;66.60;;;;;;5032424;28;20041;-62
2020/12/15 08:38:34;;;;;;;39.83;21.45;;;13.40;66.70;;;;;;5034930;28;20055;-62
2020/12/15 08:41:02;;;;;;;39.22;19.80;;;13.40;66.90;;;;;;5030757;28;20055;-62
2020/12/15 08:43:28;;;;;;;39.38;19.38;;;13.40;66.60;;;;;;5034797;28;20037;-62
2020/12/15 08:45:54;;;;;;;38.55;19.92;;;13.50;67.30;;;;;;5028902;28;20044;-62
2020/12/15 08:48:22;;;;;;;36.53;19.40;;;13.50;66.60;;;;;;5022964;28;21225;-62
2020/12/15 08:50:48;;;;;;;34.90;19.42;;;13.50;67.30;;;;;;5029175;28;20870;-62
2020/12/15 08:53:15;;;;;;;37.00;19.42;;;13.50;66.50;;;;;;5022742;28;20043;-62
2020/12/15 08:55:42;;;;;;;33.03;19.15;;;13.60;66.60;;;;;;5022418;28;20094;-62
2020/12/15 08:58:09;;;;;;;36.25;19.77;;;13.60;66.50;;;;;;5023565;28;20183;-62
2020/12/15 09:00:36;;;;;;;36.90;19.13;;;13.60;66.50;;;;;;5027881;28;20677;-62
2020/12/15 09:03:16;;;;;;;39.13;19.48;;;13.70;66.60;;;;;;5028603;28;20095;-62
2020/12/15 09:05:56;;;;;;;32.53;18.17;;;13.70;66.50;;;;;;5032096;28;20041;-62
2020/12/15 09:08:26;;;;;;;32.08;18.73;;;13.70;66.40;;;;;;5031711;28;20044;-62
2020/12/15 09:10:58;;;;;;;34.50;18.60;;;13.80;66.40;;;;;;5030316;28;20106;-62
2020/12/15 09:13:24;;;;;;;32.65;18.65;;;13.80;66.40;;;;;;5028380;28;20447;-62
2020/12/15 09:15:55;;;;;;;32.10;17.77;;;13.90;66.40;;;;;;5029714;28;20378;-62
2020/12/15 09:18:31;;;;;;;33.97;17.88;;;13.90;66.40;;;;;;5026159;28;20049;-62
2020/12/15 09:21:07;;;;;;;31.25;18.33;;;13.90;66.40;;;;;;5013897;28;20102;-62
2020/12/15 09:23:32;;;;;;;34.85;18.55;;;13.90;66.30;;;;;;5028142;28;20827;-62
2020/12/15 09:25:59;;;;;;;35.13;18.42;;;14.00;66.30;;;;;;5029936;28;20048;-62
2020/12/15 09:28:28;;;;;;;32.05;17.23;;;14.00;66.30;;;;;;5027884;28;20044;-62
2020/12/15 09:30:54;;;;;;;31.10;17.40;;;14.10;66.20;;;;;;5034188;28;20041;-62
2020/12/15 09:33:20;;;;;;;29.67;16.80;;;14.10;66.10;;;;;;5030724;28;20132;-62
2020/12/15 09:35:47;;;;;;;31.75;17.45;;;14.10;66.10;;;;;;5028687;28;20161;-62
2020/12/15 09:38:13;;;;;;;28.45;17.63;;;14.10;66.10;;;;;;5029223;28;20078;-62
2020/12/15 09:40:39;;;;;;;28.50;16.33;;;14.20;66.10;;;;;;5031886;28;20775;-62
2020/12/15 09:43:05;;;;;;;28.17;16.60;;;14.20;66.00;;;;;;5017284;28;20040;-62
2020/12/15 09:45:30;;;;;;;26.13;16.33;;;14.20;66.00;;;;;;5030376;28;23250;-62
2020/12/15 09:47:59;;;;;;;26.77;15.52;;;14.20;66.00;;;;;;5013427;28;20049;-62
2020/12/15 09:50:25;;;;;;;25.50;14.93;;;14.30;65.80;;;;;;5027055;28;20519;-62
2020/12/15 09:52:51;;;;;;;26.98;15.85;;;14.20;65.60;;;;;;5027340;28;20167;-62
2020/12/15 09:55:16;;;;;;;26.08;15.20;;;14.20;65.60;;;;;;5031722;28;20045;-62
2020/12/15 09:57:42;;;;;;;24.67;15.27;;;14.20;65.60;;;;;;5034132;28;20132;-62
2020/12/15 10:00:08;;;;;;;24.15;15.25;;;14.20;65.60;;;;;;5027667;28;20496;-62
2020/12/15 10:02:33;;;;;;;22.27;14.70;;;14.20;65.70;;;;;;5030908;28;20033;-62
2020/12/15 10:04:59;;;;;;;22.85;14.73;;;14.20;65.70;;;;;;5030752;28;20045;-62
2020/12/15 10:07:24;;;;;;;25.45;13.98;;;14.30;65.70;;;;;;5032600;28;20040;-62
2020/12/15 10:09:54;;;;;;;23.02;14.73;;;14.30;65.50;;;;;;5030887;28;20041;-62
2020/12/15 10:12:20;;;;;;;23.58;14.98;;;14.30;65.30;;;;;;5031887;28;20192;-62
2020/12/15 10:14:46;;;;;;;21.92;14.43;;;14.30;65.20;;;;;;5033554;28;20040;-62
2020/12/15 10:17:12;;;;;;;23.65;14.52;;;14.30;65.30;;;;;;5031182;28;20055;-62
2020/12/15 10:19:38;;;;;;;24.60;14.43;;;14.30;65.20;;;;;;5034976;28;20485;-62
2020/12/15 10:22:04;;;;;;;23.77;14.77;;;14.30;65.20;;;;;;5032308;28;20488;-62
2020/12/15 10:24:29;;;;;;;20.92;13.13;;;14.20;65.10;;;;;;5033065;28;20069;-62
2020/12/15 10:26:55;;;;;;;24.35;14.38;;;14.30;65.30;;;;;;5034284;28;20729;-62
2020/12/15 10:29:23;;;;;;;24.38;14.30;;;14.30;65.20;;;;;;5031054;28;20044;-62
2020/12/15 10:31:48;;;;;;;25.38;13.65;;;14.30;65.20;;;;;;5029363;28;20178;-62
2020/12/15 10:34:15;;;;;;;20.85;13.15;;;14.30;65.30;;;;;;5033533;28;20717;-62
2020/12/15 10:36:40;;;;;;;20.85;13.20;;;14.30;65.30;;;;;;5034749;28;20513;-62
2020/12/15 10:39:06;;;;;;;22.45;14.05;;;14.30;65.30;;;;;;5030981;28;20037;-62
2020/12/15 10:41:36;;;;;;;20.27;14.13;;;14.30;65.30;;;;;;5026130;28;20405;-62
2020/12/15 10:44:02;;;;;;;22.63;13.80;;;14.30;65.20;;;;;;5024162;28;20048;-62
2020/12/15 10:46:28;;;;;;;27.40;14.05;;;14.30;65.30;;;;;;5021707;28;20041;-62
2020/12/15 10:48:54;;;;;;;26.00;14.52;;;14.40;65.40;;;;;;5018300;28;20592;-62
2020/12/15 10:51:20;;;;;;;23.65;14.65;;;14.50;65.40;;;;;;5017006;28;20041;-62
2020/12/15 10:53:47;;;;;;;20.08;13.43;;;14.50;65.20;;;;;;5014920;28;20134;-62
2020/12/15 10:58:44;;;;;;;23.30;13.25;;;14.50;65.00;;;;;;5029611;28;20040;-64
2020/12/15 11:01:11;;;;;;;22.15;13.40;;;14.50;64.90;;;;;;5032847;28;20029;-66
2020/12/15 11:03:36;;;;;;;22.80;13.45;;;14.50;64.80;;;;;;5041801;28;20040;-66
2020/12/15 11:06:03;;;;;;;21.13;13.93;;;14.50;64.80;;;;;;5039059;28;20052;-66
2020/12/15 11:08:29;;;;;;;23.75;14.07;;;14.50;64.80;;;;;;5020415;28;20044;-66
2020/12/15 11:10:55;;;;;;;23.35;14.77;;;14.50;64.90;;;;;;5015860;28;20751;-66
2020/12/15 11:13:21;;;;;;;22.00;13.70;;;14.40;64.70;;;;;;5022057;28;20483;-66
2020/12/15 11:15:47;;;;;;;22.33;14.18;;;14.50;64.80;;;;;;5022729;28;20040;-66
2020/12/15 11:18:12;;;;;;;21.70;13.70;;;14.40;64.70;;;;;;5026061;28;20067;-66
2020/12/15 11:20:38;;;;;;;29.52;15.73;;;14.40;64.90;;;;;;5026617;28;20127;-65
2020/12/15 11:23:05;;;;;;;27.58;15.55;;;14.40;64.80;;;;;;5021178;28;20520;-66
2020/12/15 11:25:31;;;;;;;28.02;15.45;;;14.40;64.80;;;;;;5023021;28;20087;-66
2020/12/15 11:27:57;;;;;;;28.92;15.82;;;14.40;64.90;;;;;;5024562;28;20040;-66
2020/12/15 11:30:23;;;;;;;27.17;16.02;;;14.40;65.00;;;;;;5023908;28;20537;-66
2020/12/15 11:32:48;;;;;;;27.85;15.23;;;14.40;65.00;;;;;;5025027;28;20437;-66
2020/12/15 11:35:14;;;;;;;27.58;15.82;;;14.40;65.00;;;;;;5022705;28;20598;-66
2020/12/15 11:37:44;;;;;;;23.38;16.02;;;14.40;65.10;;;;;;5007657;28;20045;-66
2020/12/15 11:40:11;;;;;;;26.48;16.55;;;14.40;65.20;;;;;;5024005;28;20041;-66
2020/12/15 11:42:37;;;;;;;26.67;16.38;;;14.40;65.20;;;;;;5022830;28;20044;-66
2020/12/15 11:45:04;;;;;;;27.45;16.42;;;14.40;65.20;;;;;;5026572;28;20098;-66
2020/12/15 11:47:30;;;;;;;33.45;17.38;;;14.50;65.20;;;;;;5026658;28;20038;-66
2020/12/15 11:49:56;;;;;;;29.38;17.60;;;14.50;65.20;;;;;;5028108;28;20034;-66
2020/12/15 11:52:22;;;;;;;33.22;18.60;;;14.50;65.20;;;;;;5028852;28;20052;-66
2020/12/15 11:54:47;;;;;;;34.22;18.70;;;14.50;65.10;;;;;;5025634;28;20041;-66
2020/12/15 11:57:14;;;;;;;38.55;18.58;;;14.60;65.10;;;;;;5029999;28;20037;-66
2020/12/15 11:59:43;;;;;;;31.98;18.60;;;14.60;65.00;;;;;;5030621;28;20042;-66
2020/12/15 12:02:08;;;;;;;33.55;19.63;;;14.50;65.00;;;;;;5028983;28;20037;-66
2020/12/15 12:04:34;;;;;;;33.88;19.95;;;14.50;64.90;;;;;;5028359;28;20521;-66
2020/12/15 12:06:59;;;;;;;34.25;19.83;;;14.50;64.90;;;;;;5028713;28;20148;-66
2020/12/15 12:09:25;;;;;;;32.35;19.10;;;14.40;65.00;;;;;;5027519;28;20112;-66
2020/12/15 12:11:50;;;;;;;39.03;20.42;;;14.50;65.10;;;;;;5025216;28;20037;-66
2020/12/15 12:14:17;;;;;;;37.75;21.00;;;14.40;65.10;;;;;;5026482;28;20135;-66
2020/12/15 12:16:43;;;;;;;37.13;19.17;;;14.40;65.10;;;;;;5027293;28;20088;-66
2020/12/15 12:19:09;;;;;;;36.55;19.98;;;14.40;65.10;;;;;;5009371;28;20165;-65
2020/12/15 12:21:34;;;;;;;35.95;21.02;;;14.40;65.10;;;;;;5028847;28;20128;-65
2020/12/15 12:24:01;;;;;;;39.30;19.70;;;14.40;65.10;;;;;;5029062;28;20124;-65
2020/12/15 12:26:26;;;;;;;35.83;20.40;;;14.40;65.10;;;;;;5028234;28;20029;-66
2020/12/15 12:28:53;;;;;;;36.03;19.55;;;14.40;65.10;;;;;;5020909;28;20071;-66
2020/12/15 12:31:19;;;;;;;43.55;20.73;;;14.30;65.10;;;;;;5015459;28;20098;-66